Time;durP1;ratioP1;P1;durP2;ratioP2;P2;SDS_P1;SDS_P2;PMS_P1;PMS_P2;Temp;Humidity;BMP_temperature;BMP_pressure;BME280_temperature;BME280_humidity;BME280_pressure;Samples;Min_cycle;Max_cycle;Signal;HPM_P1;HPM_P2
2022/07/05 00:02:21;;;;;;;0.57;0.55;;;;;;;23.47;35.94;100195.50;5014067;28;20034;-81
2022/07/05 00:04:47;;;;;;;0.38;0.38;;;;;;;23.43;36.33;100184.34;5015511;28;20032;-81
2022/07/05 00:07:18;;;;;;;0.40;0.40;;;;;;;23.47;36.28;100203.69;5015488;28;20373;-80
2022/07/05 00:09:51;;;;;;;0.40;0.40;;;;;;;23.43;36.11;100195.25;5015095;28;20033;-80
2022/07/05 00:12:17;;;;;;;0.30;0.30;;;;;;;23.44;36.33;100192.25;4998346;28;20033;-80
2022/07/05 00:14:42;;;;;;;1.58;0.45;;;;;;;23.44;36.35;100197.69;4997975;28;20080;-80
2022/07/05 00:17:08;;;;;;;0.30;0.30;;;;;;;23.44;36.30;100196.88;4992446;28;20409;-81
2022/07/05 00:19:33;;;;;;;0.40;0.40;;;;;;;23.46;35.96;100199.31;4977961;28;20026;-79
2022/07/05 00:21:59;;;;;;;0.30;0.30;;;;;;;23.44;36.21;100197.69;4994404;28;20046;-80
2022/07/05 00:24:25;;;;;;;0.40;0.40;;;;;;;23.42;36.37;100194.44;4978151;28;20369;-79
2022/07/05 00:26:51;;;;;;;0.40;0.40;;;;;;;23.44;36.16;100194.97;4977880;28;20033;-80
2022/07/05 00:29:16;;;;;;;0.30;0.30;;;;;;;23.44;36.44;100185.97;4977919;28;20027;-80
2022/07/05 00:31:41;;;;;;;0.40;0.40;;;;;;;23.45;36.18;100176.69;4994278;28;20532;-80
2022/07/05 00:34:07;;;;;;;0.30;0.30;;;;;;;23.43;36.57;100170.69;5002295;28;20440;-80
2022/07/05 00:36:32;;;;;;;0.40;0.40;;;;;;;23.40;36.28;100171.25;5014881;28;20373;-80
2022/07/05 00:38:58;;;;;;;0.55;0.55;;;;;;;23.46;36.35;100180.22;4997047;28;20437;-80
2022/07/05 00:41:24;;;;;;;0.63;0.55;;;;;;;23.43;36.18;100178.88;5014363;28;20122;-80
2022/07/05 00:43:58;;;;;;;0.40;0.40;;;;;;;23.45;36.31;100176.69;4980900;28;20026;-80
2022/07/05 00:46:24;;;;;;;0.40;0.40;;;;;;;23.43;36.43;100171.50;4997476;28;20084;-80
2022/07/05 00:48:49;;;;;;;0.35;0.35;;;;;;;23.42;36.31;100164.44;4981030;28;20195;-80
2022/07/05 00:51:15;;;;;;;0.50;0.50;;;;;;;23.42;36.52;100169.06;4997142;28;20060;-80
2022/07/05 00:53:40;;;;;;;0.60;0.60;;;;;;;23.39;36.34;100162.25;4980709;28;20476;-80
2022/07/05 00:56:06;;;;;;;0.47;0.47;;;;;;;23.41;36.57;100160.06;4980850;28;20022;-81
2022/07/05 00:58:32;;;;;;;0.60;0.45;;;;;;;23.34;36.47;100153.28;4980741;28;20026;-80
2022/07/05 01:00:57;;;;;;;0.40;0.40;;;;;;;23.33;36.25;100147.00;4980821;28;20116;-79
2022/07/05 01:03:23;;;;;;;0.40;0.40;;;;;;;23.35;36.60;100155.75;4996847;28;20417;-81
2022/07/05 01:05:48;;;;;;;0.47;0.47;;;;;;;23.38;36.45;100160.63;4996616;28;20460;-80
2022/07/05 01:08:14;;;;;;;0.40;0.40;;;;;;;23.42;36.48;100167.16;4996803;28;20026;-81
2022/07/05 01:10:41;;;;;;;0.50;0.50;;;;;;;23.41;36.57;100170.97;4980326;28;20497;-80
2022/07/05 01:13:06;;;;;;;0.50;0.50;;;;;;;23.37;36.56;100155.44;4996724;28;20028;-80
2022/07/05 01:15:31;;;;;;;0.40;0.40;;;;;;;23.39;36.32;100161.47;4980626;28;20030;-80
2022/07/05 01:17:57;;;;;;;0.50;0.50;;;;;;;23.40;36.52;100163.91;4980194;28;20080;-81
2022/07/05 01:20:23;;;;;;;0.35;0.35;;;;;;;23.38;36.28;100160.63;4980225;28;20091;-80
2022/07/05 01:22:55;;;;;;;0.43;0.40;;;;;;;23.41;36.19;100167.44;4980199;28;20111;-80
2022/07/05 01:25:25;;;;;;;0.30;0.30;;;;;;;23.40;36.35;100163.06;4980440;28;20076;-80
2022/07/05 01:27:50;;;;;;;0.40;0.40;;;;;;;23.40;36.28;100163.06;4980145;28;20376;-80
2022/07/05 01:30:16;;;;;;;0.40;0.40;;;;;;;23.39;36.55;100167.72;4979959;28;20028;-80
2022/07/05 01:32:42;;;;;;;0.38;0.38;;;;;;;23.39;36.20;100167.72;4980338;28;20033;-79
2022/07/05 01:35:08;;;;;;;0.57;0.50;;;;;;;23.30;36.18;100150.31;5008245;28;20050;-80
2022/07/05 01:37:33;;;;;;;0.40;0.40;;;;;;;23.36;36.21;100165.53;5012499;28;20026;-80
2022/07/05 01:40:02;;;;;;;0.40;0.40;;;;;;;23.38;36.14;100166.06;5013765;28;20026;-81
2022/07/05 01:42:28;;;;;;;0.40;0.40;;;;;;;23.39;36.18;100166.91;5013629;28;20030;-80
2022/07/05 01:44:53;;;;;;;0.40;0.40;;;;;;;23.35;36.33;100165.81;5012433;28;20172;-80
2022/07/05 01:47:21;;;;;;;0.40;0.40;;;;;;;23.39;36.10;100166.91;4996032;28;20022;-81
2022/07/05 01:49:48;;;;;;;0.47;0.47;;;;;;;23.37;36.05;100169.06;5013815;28;20048;-81
2022/07/05 01:52:13;;;;;;;0.45;0.45;;;;;;;23.37;36.00;100160.91;5012142;28;20029;-80
2022/07/05 01:54:39;;;;;;;0.40;0.40;;;;;;;23.38;35.98;100168.81;5012384;28;20465;-81
2022/07/05 01:57:05;;;;;;;0.32;0.32;;;;;;;23.37;36.09;100161.72;4996297;28;20072;-80
2022/07/05 01:59:34;;;;;;;0.40;0.40;;;;;;;23.37;36.04;100160.91;5013487;28;20058;-81
2022/07/05 02:02:00;;;;;;;0.40;0.40;;;;;;;23.33;36.20;100157.09;5012219;28;20036;-80
2022/07/05 02:04:25;;;;;;;0.47;0.47;;;;;;;23.37;36.07;100159.00;4996214;28;20029;-80
2022/07/05 02:06:51;;;;;;;0.30;0.30;;;;;;;23.37;35.98;100153.56;4996184;28;20018;-80
2022/07/05 02:09:16;;;;;;;0.50;0.50;;;;;;;23.33;35.96;100144.28;5012132;28;20025;-80
2022/07/05 02:11:42;;;;;;;0.50;0.50;;;;;;;23.36;36.26;100151.91;5013568;28;20030;-80
2022/07/05 02:14:07;;;;;;;0.40;0.40;;;;;;;23.34;36.33;100140.47;5012434;28;20081;-80
2022/07/05 02:16:33;;;;;;;0.43;0.43;;;;;;;23.37;36.06;100155.44;5012132;28;20026;-80
2022/07/05 02:18:58;;;;;;;0.70;0.40;;;;;;;23.37;36.04;100161.72;5013478;28;20026;-80
2022/07/05 02:21:24;;;;;;;0.40;0.40;;;;;;;23.33;36.10;100140.75;5013216;28;20456;-80
2022/07/05 02:23:49;;;;;;;0.47;0.47;;;;;;;23.36;36.04;100146.44;5013484;28;20033;-80
2022/07/05 02:26:15;;;;;;;0.40;0.30;;;;;;;23.36;36.26;100143.72;5013841;28;20527;-81
2022/07/05 02:28:40;;;;;;;0.40;0.40;;;;;;;23.33;36.07;100136.09;5013487;28;20080;-81
2022/07/05 02:31:06;;;;;;;0.50;0.35;;;;;;;23.35;36.32;100136.66;5013424;28;20472;-81
2022/07/05 02:33:31;;;;;;;0.40;0.40;;;;;;;23.35;36.32;100127.66;5013058;28;20030;-81
2022/07/05 02:35:58;;;;;;;0.40;0.40;;;;;;;23.36;36.23;100126.56;5013138;28;20026;-81
2022/07/05 02:38:23;;;;;;;0.35;0.35;;;;;;;23.33;36.38;100119.75;5013352;28;20092;-81
2022/07/05 02:40:48;;;;;;;0.50;0.50;;;;;;;23.34;36.37;100132.28;5013332;28;20030;-81
2022/07/05 02:43:14;;;;;;;0.50;0.50;;;;;;;23.36;36.53;100127.38;5013425;28;20029;-80
2022/07/05 02:45:39;;;;;;;0.30;0.30;;;;;;;23.33;36.30;100119.75;5013008;28;20485;-80
2022/07/05 02:48:05;;;;;;;0.55;0.40;;;;;;;23.36;36.26;100126.56;5013310;28;20037;-80
2022/07/05 02:50:31;;;;;;;0.47;0.47;;;;;;;23.29;36.36;100124.13;4995324;28;20497;-79
2022/07/05 02:52:56;;;;;;;0.40;0.40;;;;;;;23.32;36.50;100128.19;4995445;28;20076;-81
2022/07/05 02:55:21;;;;;;;0.40;0.40;;;;;;;23.35;36.44;100133.94;4979301;28;20038;-80
2022/07/05 02:57:47;;;;;;;0.63;0.52;;;;;;;23.35;36.75;100136.66;4979223;28;20025;-82
2022/07/05 03:00:13;;;;;;;0.52;0.52;;;;;;;23.33;36.63;100138.81;5013810;28;20487;-79
2022/07/05 03:02:38;;;;;;;0.50;0.50;;;;;;;23.34;36.65;100137.75;4995775;28;20437;-80
2022/07/05 03:05:04;;;;;;;0.40;0.40;;;;;;;23.33;36.71;100140.75;5014267;28;20045;-80
2022/07/05 03:07:30;;;;;;;0.40;0.40;;;;;;;23.33;36.75;100141.56;5017135;28;20037;-80
2022/07/05 03:09:55;;;;;;;0.50;0.50;;;;;;;23.33;36.88;100141.56;5016476;28;20025;-80
2022/07/05 03:12:20;;;;;;;0.40;0.40;;;;;;;23.31;36.97;100134.75;5016248;28;20414;-80
2022/07/05 03:14:46;;;;;;;0.40;0.40;;;;;;;23.32;37.10;100139.94;5016488;28;20026;-81
2022/07/05 03:17:11;;;;;;;0.38;0.38;;;;;;;23.34;37.02;100131.47;4998829;28;20472;-81
2022/07/05 03:19:37;;;;;;;0.50;0.50;;;;;;;23.31;37.03;100132.84;4998938;28;20488;-80
2022/07/05 03:22:03;;;;;;;0.50;0.50;;;;;;;23.33;37.14;100129.84;4999019;28;20429;-80
2022/07/05 03:24:28;;;;;;;0.40;0.40;;;;;;;23.34;37.27;100126.84;5016046;28;20440;-80
2022/07/05 03:26:54;;;;;;;0.40;0.40;;;;;;;23.34;37.20;100137.75;4998796;28;20377;-81
2022/07/05 03:29:19;;;;;;;0.50;0.50;;;;;;;23.33;37.47;100136.09;5016115;28;20372;-80
2022/07/05 03:31:45;;;;;;;0.60;0.47;;;;;;;23.33;37.62;100127.91;5015968;28;20073;-79
2022/07/05 03:34:10;;;;;;;0.40;0.40;;;;;;;23.34;37.47;100132.28;4998276;28;20038;-80
2022/07/05 03:36:36;;;;;;;0.40;0.40;;;;;;;23.31;37.26;100111.03;4982094;28;20385;-81
2022/07/05 03:39:01;;;;;;;0.38;0.38;;;;;;;23.39;37.45;100123.28;4982264;28;20030;-81
2022/07/05 03:41:27;;;;;;;0.40;0.40;;;;;;;23.43;37.59;100127.88;4982277;28;20431;-80
2022/07/05 03:43:52;;;;;;;0.50;0.50;;;;;;;23.41;38.03;100121.91;4982229;28;20452;-80
2022/07/05 03:46:18;;;;;;;0.43;0.43;;;;;;;23.44;38.12;100121.34;4982203;28;20049;-80
2022/07/05 03:48:43;;;;;;;0.50;0.50;;;;;;;23.47;38.47;100122.69;5016286;28;20026;-81
2022/07/05 03:51:08;;;;;;;0.40;0.40;;;;;;;23.51;38.32;100128.38;5015916;28;20457;-81
2022/07/05 03:53:34;;;;;;;0.50;0.50;;;;;;;23.52;38.49;100119.13;4998196;28;20465;-81
2022/07/05 03:56:00;;;;;;;0.40;0.40;;;;;;;23.46;38.73;100106.59;5015414;28;20026;-80
2022/07/05 03:58:25;;;;;;;0.40;0.40;;;;;;;23.56;38.72;100117.44;4998195;28;20036;-81
2022/07/05 04:00:51;;;;;;;0.45;0.30;;;;;;;23.53;38.90;100112.59;4998079;28;20497;-80
2022/07/05 04:03:16;;;;;;;0.32;0.32;;;;;;;23.54;39.15;100119.66;4997768;28;20073;-80
2022/07/05 04:05:42;;;;;;;0.43;0.43;;;;;;;23.60;39.17;100121.25;4997663;28;20034;-81
2022/07/05 04:08:07;;;;;;;0.60;0.50;;;;;;;23.60;39.63;100126.72;4981399;28;20030;-81
2022/07/05 04:10:33;;;;;;;0.30;0.30;;;;;;;23.62;39.24;100110.88;5015375;28;20033;-81
2022/07/05 04:12:58;;;;;;;0.50;0.50;;;;;;;23.63;39.04;100124.25;4997758;28;20381;-81
2022/07/05 04:15:24;;;;;;;0.40;0.40;;;;;;;23.65;39.65;100121.22;5014495;28;20026;-80
2022/07/05 04:17:50;;;;;;;0.57;0.57;;;;;;;23.66;39.58;100114.66;5014927;28;20077;-80
2022/07/05 04:20:16;;;;;;;0.40;0.40;;;;;;;23.65;39.79;100115.78;4982040;28;20026;-80
2022/07/05 04:22:41;;;;;;;0.40;0.40;;;;;;;23.60;39.65;100102.97;4997385;28;20483;-80
2022/07/05 04:25:16;;;;;;;0.50;0.50;;;;;;;23.71;39.51;100117.38;4997302;28;20026;-81
2022/07/05 04:27:48;;;;;;;0.40;0.40;;;;;;;23.70;39.92;100120.38;4983966;28;20034;-81
2022/07/05 04:30:14;;;;;;;0.40;0.40;;;;;;;23.65;39.69;100115.78;4982045;28;20045;-80
2022/07/05 04:32:39;;;;;;;0.40;0.40;;;;;;;23.72;39.77;100127.19;4997535;28;20480;-80
2022/07/05 04:35:05;;;;;;;0.30;0.30;;;;;;;23.71;39.98;100131.00;4996794;28;20065;-81
2022/07/05 04:37:30;;;;;;;0.40;0.40;;;;;;;23.75;40.03;100126.63;5015078;28;20030;-80
2022/07/05 04:39:56;;;;;;;0.50;0.50;;;;;;;23.75;39.83;100121.19;4997245;28;20029;-80
2022/07/05 04:42:21;;;;;;;0.40;0.40;;;;;;;23.79;39.91;100127.69;5014793;28;20030;-80
2022/07/05 04:44:47;;;;;;;0.30;0.30;;;;;;;23.69;40.31;100105.13;4997228;28;20469;-80
2022/07/05 04:47:12;;;;;;;0.50;0.50;;;;;;;23.79;40.22;100133.16;5014708;28;20049;-81
2022/07/05 04:49:37;;;;;;;0.40;0.40;;;;;;;23.80;40.32;100123.88;5014645;28;20092;-81
2022/07/05 04:52:03;;;;;;;0.38;0.38;;;;;;;23.78;40.47;100114.31;5014676;28;20026;-81
2022/07/05 04:54:29;;;;;;;0.40;0.40;;;;;;;23.79;40.93;100103.13;4980783;28;20033;-81
2022/07/05 04:56:54;;;;;;;0.40;0.40;;;;;;;23.85;39.82;100100.41;4996647;28;20033;-80
2022/07/05 04:59:20;;;;;;;0.55;0.55;;;;;;;23.86;40.36;100091.13;4980860;28;20033;-80
2022/07/05 05:01:45;;;;;;;0.50;0.50;;;;;;;23.85;40.93;100098.47;4996790;28;20492;-81
2022/07/05 05:04:10;;;;;;;0.47;0.47;;;;;;;23.83;41.00;100083.50;4996496;28;20033;-81
2022/07/05 05:06:36;;;;;;;0.50;0.50;;;;;;;23.92;40.41;100098.16;4996646;28;20068;-81
2022/07/05 05:09:01;;;;;;;0.40;0.40;;;;;;;23.93;40.92;100099.81;4997094;28;20065;-81
2022/07/05 05:11:27;;;;;;;0.40;0.40;;;;;;;23.85;40.37;100086.75;4981120;28;20484;-81
2022/07/05 05:13:53;;;;;;;0.50;0.50;;;;;;;23.95;40.65;100089.41;5016047;28;20031;-81
2022/07/05 05:16:18;;;;;;;1.83;0.50;;;;;;;23.97;40.72;100095.41;4998619;28;20431;-81
2022/07/05 05:18:45;;;;;;;0.52;0.40;;;;;;;23.99;40.62;100098.66;4996586;28;20557;-80
2022/07/05 05:21:10;;;;;;;0.50;0.50;;;;;;;23.99;40.30;100094.03;5014949;28;20030;-81
2022/07/05 05:23:42;;;;;;;0.40;0.40;;;;;;;24.02;41.20;100095.38;5015484;28;20349;-81
2022/07/05 05:26:08;;;;;;;0.70;0.60;;;;;;;24.00;40.63;100089.38;4999818;28;20022;-82
2022/07/05 05:28:33;;;;;;;0.60;0.60;;;;;;;23.99;40.64;100083.13;4996406;28;20029;-81
2022/07/05 05:30:59;;;;;;;0.50;0.50;;;;;;;24.04;41.01;100087.69;4981177;28;20084;-82
2022/07/05 05:33:24;;;;;;;0.50;0.47;;;;;;;24.05;40.84;100083.88;4996150;28;20030;-81
2022/07/05 05:35:50;;;;;;;0.82;0.45;;;;;;;24.00;40.84;100079.28;5013361;28;20480;-80
2022/07/05 05:38:15;;;;;;;0.40;0.40;;;;;;;24.03;40.98;100080.63;4997434;28;20389;-81
2022/07/05 05:40:43;;;;;;;0.35;0.35;;;;;;;24.08;41.09;100080.59;5013251;28;20053;-80
2022/07/05 05:43:08;;;;;;;0.47;0.47;;;;;;;24.09;41.75;100081.41;5014133;28;20056;-81
2022/07/05 05:45:34;;;;;;;0.50;0.50;;;;;;;23.95;41.47;100065.66;5013831;28;20030;-81
2022/07/05 05:47:59;;;;;;;0.73;0.73;;;;;;;24.01;41.28;100069.19;5012541;28;20025;-80
2022/07/05 05:50:29;;;;;;;1.77;0.85;;;;;;;24.02;41.39;100070.78;5012409;28;20484;-81
2022/07/05 05:52:54;;;;;;;3.13;1.40;;;;;;;24.10;41.12;100063.94;5013408;28;20022;-83
2022/07/05 05:55:20;;;;;;;3.55;1.35;;;;;;;24.09;41.30;100054.09;5012629;28;20032;-81
2022/07/05 05:57:46;;;;;;;3.28;1.40;;;;;;;24.04;41.58;100062.31;5012844;28;20022;-81
2022/07/05 06:00:12;;;;;;;1.85;0.95;;;;;;;24.00;41.86;100056.63;4995951;28;20415;-82
2022/07/05 06:02:38;;;;;;;1.95;0.90;;;;;;;24.09;42.36;100054.91;4995808;28;20022;-81
2022/07/05 06:05:04;;;;;;;1.33;0.80;;;;;;;24.13;42.26;100055.97;5012143;28;20029;-81
2022/07/05 06:07:30;;;;;;;0.93;0.60;;;;;;;24.19;42.30;100063.00;4980492;28;20121;-80
2022/07/05 06:09:55;;;;;;;2.78;1.50;;;;;;;24.08;42.55;100036.91;5014061;28;20026;-80
2022/07/05 06:12:20;;;;;;;2.65;1.42;;;;;;;24.22;41.95;100058.91;5012563;28;20465;-81
2022/07/05 06:14:46;;;;;;;2.90;1.52;;;;;;;24.23;42.31;100056.97;5014637;28;20488;-81
2022/07/05 06:17:11;;;;;;;20.30;7.38;;;;;;;24.23;42.77;100059.72;5012588;28;20036;-81
2022/07/05 06:19:37;;;;;;;15.20;5.97;;;;;;;24.17;42.08;100054.28;4995418;28;20030;-80
2022/07/05 06:22:03;;;;;;;12.23;4.53;;;;;;;24.21;42.55;100051.81;4994614;28;20022;-80
2022/07/05 06:24:28;;;;;;;9.68;4.30;;;;;;;24.24;42.76;100047.69;4994098;28;20470;-81
2022/07/05 06:26:53;;;;;;;10.98;3.97;;;;;;;24.24;42.59;100034.03;4994255;28;20019;-81
2022/07/05 06:29:19;;;;;;;9.05;2.97;;;;;;;24.19;42.53;100038.44;4996084;28;20030;-81
2022/07/05 06:31:44;;;;;;;8.00;3.25;;;;;;;24.12;42.60;100031.69;4994950;28;20022;-82
2022/07/05 06:34:10;;;;;;;5.75;2.20;;;;;;;24.09;42.79;100033.06;4995525;28;20050;-82
2022/07/05 06:36:35;;;;;;;4.68;2.13;;;;;;;24.09;43.06;100033.06;4997638;28;20027;-82
2022/07/05 06:39:01;;;;;;;3.13;1.50;;;;;;;24.07;42.58;100015.34;4998778;28;20377;-81
2022/07/05 06:41:26;;;;;;;2.90;1.73;;;;;;;24.10;42.68;100026.50;5005029;28;20042;-79
2022/07/05 06:43:52;;;;;;;4.20;1.75;;;;;;;24.10;42.86;100028.44;4989261;28;20022;-81
2022/07/05 06:46:17;;;;;;;2.38;1.20;;;;;;;24.15;42.43;100025.66;5008162;28;20030;-80
2022/07/05 06:48:43;;;;;;;2.22;1.00;;;;;;;24.06;42.75;100021.91;4988047;28;20029;-80
2022/07/05 06:51:08;;;;;;;2.10;1.13;;;;;;;24.06;42.80;100014.56;4997537;28;20026;-80
2022/07/05 06:53:34;;;;;;;1.30;0.98;;;;;;;24.07;42.62;100013.44;4997175;28;20432;-79
2022/07/05 06:55:59;;;;;;;2.50;0.90;;;;;;;24.13;42.65;100012.31;4996717;28;20026;-81
2022/07/05 06:58:25;;;;;;;1.48;0.90;;;;;;;24.09;42.67;100011.22;4995685;28;20018;-82
2022/07/05 07:00:50;;;;;;;2.72;1.30;;;;;;;24.06;42.44;100011.81;4997174;28;20031;-81
2022/07/05 07:03:16;;;;;;;1.30;1.08;;;;;;;24.14;42.49;99994.78;4995495;28;20038;-81
2022/07/05 07:05:41;;;;;;;1.90;1.20;;;;;;;24.19;42.04;100010.31;4979820;28;20030;-80
2022/07/05 07:10:51;;;;;;;2.55;0.98;;;;;;;24.16;42.33;100000.81;4982015;28;20033;-79
2022/07/05 07:13:16;;;;;;;3.22;1.15;;;;;;;24.16;42.45;100000.81;4978906;28;20030;-81
2022/07/05 07:15:42;;;;;;;1.90;1.20;;;;;;;24.13;42.01;99985.00;4979881;28;20113;-79
2022/07/05 07:18:07;;;;;;;1.40;1.00;;;;;;;24.15;42.13;99999.16;4975878;28;20050;-81
2022/07/05 07:20:33;;;;;;;1.65;1.02;;;;;;;24.16;42.26;100000.81;4991921;28;20389;-83
2022/07/05 07:22:58;;;;;;;1.30;1.00;;;;;;;24.10;42.43;99996.50;4992337;28;20034;-80
2022/07/05 07:25:24;;;;;;;2.60;1.10;;;;;;;24.05;42.29;99987.53;4991927;28;20054;-79
2022/07/05 07:27:53;;;;;;;0.80;0.80;;;;;;;24.07;42.31;99988.88;4992059;28;20027;-80
2022/07/05 07:30:24;;;;;;;1.27;1.17;;;;;;;24.07;42.54;99994.31;4991595;28;20051;-79
2022/07/05 07:32:49;;;;;;;3.05;0.90;;;;;;;24.10;42.35;99993.75;4991919;28;20019;-81
2022/07/05 07:35:15;;;;;;;1.85;1.10;;;;;;;24.10;42.28;99985.56;4991424;28;20054;-80
2022/07/05 07:37:40;;;;;;;1.10;1.00;;;;;;;24.07;42.51;99975.22;4976714;28;20378;-80
2022/07/05 07:40:06;;;;;;;1.88;1.05;;;;;;;24.30;42.06;99972.81;4991895;28;20109;-79
2022/07/05 07:42:32;;;;;;;3.38;1.17;;;;;;;24.31;41.84;99969.78;4991519;28;20470;-81
2022/07/05 07:44:57;;;;;;;2.03;1.10;;;;;;;24.37;41.79;99967.84;4991464;28;20031;-81
2022/07/05 07:47:23;;;;;;;1.20;1.08;;;;;;;24.41;41.92;99968.88;4975697;28;20027;-78
2022/07/05 07:49:48;;;;;;;1.13;1.00;;;;;;;24.39;41.76;99965.63;4975953;28;20414;-80
2022/07/05 07:52:14;;;;;;;1.90;1.13;;;;;;;24.37;42.09;99956.91;4991092;28;20046;-79
2022/07/05 07:54:40;;;;;;;1.58;1.02;;;;;;;24.41;41.64;99966.13;4991409;28;20054;-80
2022/07/05 07:57:05;;;;;;;2.15;0.80;;;;;;;24.44;41.62;99956.53;4991247;28;20054;-79
2022/07/05 07:59:32;;;;;;;0.88;0.88;;;;;;;24.41;42.02;99954.41;4976225;28;20035;-80
2022/07/05 08:01:57;;;;;;;1.02;0.80;;;;;;;24.35;42.14;99951.75;4990972;28;20034;-80
2022/07/05 08:04:22;;;;;;;1.08;1.00;;;;;;;24.34;42.31;99947.38;4975974;28;20130;-80
2022/07/05 08:06:48;;;;;;;1.17;1.08;;;;;;;24.38;42.02;99944.88;4990849;28;20023;-80
2022/07/05 08:09:13;;;;;;;1.40;0.82;;;;;;;24.37;41.85;99933.13;4991303;28;20129;-80
2022/07/05 08:11:39;;;;;;;1.83;0.90;;;;;;;24.35;42.18;99949.00;4991109;28;20030;-80
2022/07/05 08:14:05;;;;;;;1.75;1.13;;;;;;;24.36;42.16;99936.16;4990676;28;20460;-79
2022/07/05 08:16:30;;;;;;;1.00;1.00;;;;;;;24.40;42.35;99948.13;4975993;28;20038;-79
2022/07/05 08:21:40;;;;;;;1.00;1.00;;;;;;;24.33;42.40;99944.94;4994235;28;20041;-80
2022/07/05 08:24:07;;;;;;;1.23;1.13;;;;;;;24.34;42.59;99957.50;4995261;28;20023;-80
2022/07/05 08:26:32;;;;;;;1.33;0.95;;;;;;;24.39;42.38;99943.78;4994225;28;20470;-79
2022/07/05 08:29:02;;;;;;;1.10;0.88;;;;;;;24.41;41.86;99949.75;4978160;28;20040;-80
2022/07/05 08:31:30;;;;;;;1.10;1.00;;;;;;;24.42;42.18;99953.28;4993946;28;20076;-80
2022/07/05 08:33:56;;;;;;;1.20;1.10;;;;;;;24.31;42.34;99947.94;4993603;28;20101;-79
2022/07/05 08:36:23;;;;;;;0.82;0.82;;;;;;;24.42;42.22;99959.56;4977660;28;20050;-79
2022/07/05 08:38:48;;;;;;;0.98;0.88;;;;;;;24.36;42.24;99955.28;4994194;28;20036;-79
2022/07/05 08:41:13;;;;;;;1.08;0.85;;;;;;;24.40;42.20;99961.78;4994613;28;20026;-79
2022/07/05 08:43:42;;;;;;;1.02;0.93;;;;;;;24.39;41.83;99976.53;4981106;28;20034;-78
2022/07/05 08:46:10;;;;;;;0.80;0.80;;;;;;;24.39;42.37;99998.41;4985865;28;20101;-79
2022/07/05 08:48:41;;;;;;;1.05;0.90;;;;;;;24.41;42.02;100001.66;5002787;28;20038;-80
2022/07/05 08:51:12;;;;;;;0.70;0.70;;;;;;;24.37;42.03;100000.59;4999902;28;20078;-80
2022/07/05 08:53:39;;;;;;;0.98;0.98;;;;;;;24.42;42.04;99991.53;4978782;28;20026;-80
2022/07/05 08:56:04;;;;;;;1.00;0.90;;;;;;;24.47;41.94;99996.94;4997913;28;20143;-80
2022/07/05 08:58:30;;;;;;;0.70;0.70;;;;;;;24.45;41.97;99997.22;4978356;28;20026;-79
2022/07/05 09:00:55;;;;;;;0.85;0.85;;;;;;;24.38;41.93;99994.03;4977801;28;20089;-80
2022/07/05 09:03:21;;;;;;;1.02;0.93;;;;;;;24.50;41.88;99999.91;4994015;28;20042;-80
2022/07/05 09:05:46;;;;;;;0.80;0.80;;;;;;;24.49;41.79;99992.81;4993763;28;20030;-80
2022/07/05 09:08:14;;;;;;;0.98;0.80;;;;;;;24.54;42.00;99992.81;4994425;28;20038;-80
2022/07/05 09:10:39;;;;;;;0.80;0.80;;;;;;;24.42;41.88;99986.88;4994727;28;20113;-80
2022/07/05 09:13:05;;;;;;;1.20;0.85;;;;;;;24.53;41.78;99996.59;4976846;28;20111;-81
2022/07/05 09:15:30;;;;;;;0.70;0.70;;;;;;;24.47;41.94;99995.00;4977473;28;20038;-80
2022/07/05 09:17:56;;;;;;;0.90;0.90;;;;;;;24.48;42.04;100007.56;4994594;28;20037;-81
2022/07/05 09:20:21;;;;;;;0.80;0.77;;;;;;;24.50;42.34;100015.47;4994294;28;20029;-81
2022/07/05 09:22:54;;;;;;;0.82;0.82;;;;;;;24.55;42.08;100004.53;4993845;28;20454;-80
2022/07/05 09:25:23;;;;;;;1.05;0.90;;;;;;;24.58;41.88;100012.16;4994319;28;20026;-80
2022/07/05 09:28:02;;;;;;;0.73;0.73;;;;;;;24.57;41.72;100010.50;4994240;28;20049;-80
2022/07/05 09:30:30;;;;;;;0.70;0.70;;;;;;;24.58;41.82;99997.66;4993827;28;20057;-78
2022/07/05 09:33:01;;;;;;;1.30;0.68;;;;;;;24.60;41.51;100007.19;4994315;28;20105;-81
2022/07/05 09:35:27;;;;;;;0.73;0.70;;;;;;;24.60;41.70;100017.31;5011406;28;20054;-81
2022/07/05 09:37:52;;;;;;;0.50;0.50;;;;;;;24.58;41.82;100014.03;5013289;28;20053;-80
2022/07/05 09:40:18;;;;;;;0.60;0.60;;;;;;;24.55;42.13;100027.19;5013651;28;20049;-81
2022/07/05 09:42:43;;;;;;;0.60;0.60;;;;;;;24.53;41.71;100021.19;4996052;28;20045;-80
2022/07/05 09:45:12;;;;;;;0.60;0.60;;;;;;;24.53;42.23;100015.72;4995663;28;20449;-80
2022/07/05 09:47:37;;;;;;;0.70;0.70;;;;;;;24.61;42.15;100011.56;4996427;28;20033;-80
2022/07/05 09:50:07;;;;;;;1.35;1.00;;;;;;;24.55;42.38;100008.06;5013811;28;20097;-80
2022/07/05 09:52:42;;;;;;;1.58;1.00;;;;;;;24.59;42.08;100012.97;5013571;28;20161;-80
2022/07/05 09:55:16;;;;;;;0.70;0.70;;;;;;;24.59;42.09;100015.69;4996525;28;20030;-80
2022/07/05 09:57:42;;;;;;;;;;;;;;;24.72;41.76;100023.19;4996323;28;20022;-79
2022/07/05 10:00:11;;;;;;;;;;;;;;;24.77;41.78;100014.09;5013959;28;20323;-80
2022/07/05 10:02:39;;;;;;;;;;;;;;;24.75;41.94;100017.16;5013895;28;19913;-79
2022/07/05 10:05:11;;;;;;;;;;;;;;;24.86;41.45;100021.38;4996346;28;19909;-80
2022/07/05 10:07:38;;;;;;;;;;;;;;;24.87;41.69;100019.44;5013786;28;19917;-80
2022/07/05 10:10:04;;;;;;;;;;;;;;;24.88;41.55;100019.16;4996008;28;20016;-81
2022/07/05 10:12:29;;;;;;;;;;;;;;;24.89;41.27;100023.53;5013431;28;19913;-82
2022/07/05 10:14:54;;;;;;;;;;;;;;;24.98;41.14;100020.16;5016417;28;19917;-81
2022/07/05 10:17:19;;;;;;;;;;;;;;;25.02;40.94;100011.06;5017771;28;19950;-80
2022/07/05 10:19:45;;;;;;;;;;;;;;;25.03;40.93;100015.44;5017364;28;20415;-80
2022/07/05 10:22:11;;;;;;;;;;;;;;;25.07;41.07;100029.31;5017615;28;19913;-82
2022/07/05 10:24:36;;;;;;;;;;;;;;;25.07;41.03;100026.59;5017737;28;20341;-83
2022/07/05 10:27:02;;;;;;;;;;;;;;;25.06;40.82;100023.03;4999848;28;19936;-80
2022/07/05 10:29:28;;;;;;;;;;;;;;;24.96;41.07;100027.81;4999874;28;19968;-82
2022/07/05 10:31:53;;;;;;;;;;;;;;;25.01;40.78;100025.00;4999593;28;19913;-81
2022/07/05 10:34:18;;;;;;;;;;;;;;;24.93;40.95;100023.75;5017068;28;19936;-80
2022/07/05 10:36:43;;;;;;;;;;;;;;;24.96;40.96;100033.28;5017420;28;20352;-81
2022/07/05 10:39:08;;;;;;;;;;;;;;;25.03;40.75;100034.56;5016982;28;19983;-82
2022/07/05 10:41:34;;;;;;;;;;;;;;;24.99;40.78;100027.22;5017308;28;19913;-81
2022/07/05 10:43:59;;;;;;;;;;;;;;;25.11;40.72;100016.69;5016046;28;20383;-79
2022/07/05 10:46:37;;;;;;;;;;;;;;;25.12;40.83;100021.06;5017223;28;20464;-80
2022/07/05 10:49:15;;;;;;;;;;;;;;;25.07;40.78;100008.25;5017890;28;19967;-81
2022/07/05 10:51:40;;;;;;;;;;;;;;;25.13;40.58;100028.16;5017582;28;19917;-80
2022/07/05 10:54:06;;;;;;;;;;;;;;;25.14;40.56;100034.44;5015487;28;19913;-82
2022/07/05 10:56:31;;;;;;;;;;;;;;;25.16;40.49;100024.81;5016955;28;19913;-81
2022/07/05 10:59:08;;;;;;;;;;;;;;;25.22;40.27;100026.38;5015453;28;20372;-83
2022/07/05 11:01:34;;;;;;;;;;;;;;;25.21;40.76;100029.41;5016640;28;19919;-80
2022/07/05 11:04:04;;;;;;;;;;;;;;;25.32;40.43;100030.09;5015336;28;19913;-83
2022/07/05 11:06:38;;;;;;;;;;;;;;;25.30;40.07;100033.97;5016867;28;19950;-81
2022/07/05 11:09:05;;;;;;;;;;;;;;;25.32;40.41;100041.88;5016479;28;20352;-81
2022/07/05 11:11:40;;;;;;;;;;;;;;;25.27;40.51;100042.75;5016419;28;20008;-81
2022/07/05 11:14:21;;;;;;;;;;;;;;;25.17;40.93;100045.59;5016684;28;19914;-82
2022/07/05 11:16:46;;;;;;;;;;;;;;;25.13;40.85;100044.56;5016947;28;19921;-81
2022/07/05 11:19:21;;;;;;;;;;;;;;;25.14;40.90;100040.72;5002346;28;20348;-80
2022/07/05 11:21:59;;;;;;;;;;;;;;;25.17;40.79;100031.91;4997069;28;19913;-82
2022/07/05 11:24:25;;;;;;;;;;;;;;;25.18;41.06;100038.19;4996485;28;19960;-83
2022/07/05 11:26:52;;;;;;;;;;;;;;;25.11;41.42;100042.13;4996026;28;19918;-79
2022/07/05 11:29:36;;;;;;;;;;;;;;;25.13;41.41;100060.97;4997313;28;19914;-79
2022/07/05 11:32:04;;;;;;;;;;;;;;;24.97;41.70;100120.47;4996804;28;19976;-81
2022/07/05 11:34:33;;;;;;;;;;;;;;;25.08;41.50;100107.50;5006495;28;19923;-80
2022/07/05 11:37:13;;;;;;;;;;;;;;;25.07;41.59;100100.41;5016384;28;19917;-80
2022/07/05 11:39:39;;;;;;;;;;;;;;;25.06;41.59;100104.22;5016321;28;19953;-80